sensor_id;sensor_type;location;lat;lon;timestamp;pressure;altitude;pressure_sealevel;temperature;humidity
12987;BME280;58897;51.960;5.582;2023-05-23T00:01:08;101522.72;;;15.94;100.00
12987;BME280;58897;51.960;5.582;2023-05-23T00:03:35;101529.19;;;15.93;100.00
12987;BME280;58897;51.960;5.582;2023-05-23T00:06:05;101534.78;;;15.99;100.00
12987;BME280;58897;51.960;5.582;2023-05-23T00:08:32;101524.81;;;16.06;100.00
12987;BME280;58897;51.960;5.582;2023-05-23T00:10:58;101527.22;;;15.87;100.00
12987;BME280;58897;51.960;5.582;2023-05-23T00:13:25;101532.34;;;15.82;100.00
12987;BME280;58897;51.960;5.582;2023-05-23T00:15:52;101538.19;;;15.71;100.00
12987;BME280;58897;51.960;5.582;2023-05-23T00:18:18;101533.34;;;15.58;100.00
12987;BME280;58897;51.960;5.582;2023-05-23T00:20:45;101543.84;;;15.69;100.00
12987;BME280;58897;51.960;5.582;2023-05-23T00:23:12;101539.66;;;15.81;100.00
12987;BME280;58897;51.960;5.582;2023-05-23T00:25:45;101542.03;;;15.84;100.00
12987;BME280;58897;51.960;5.582;2023-05-23T00:28:18;101536.59;;;15.84;100.00
12987;BME280;58897;51.960;5.582;2023-05-23T00:30:45;101536.34;;;15.94;100.00
12987;BME280;58897;51.960;5.582;2023-05-23T00:33:12;101535.94;;;15.82;100.00
12987;BME280;58897;51.960;5.582;2023-05-23T00:35:42;101543.59;;;15.79;100.00
12987;BME280;58897;51.960;5.582;2023-05-23T00:38:09;101551.09;;;15.46;100.00
12987;BME280;58897;51.960;5.582;2023-05-23T00:40:36;101549.34;;;15.61;100.00
12987;BME280;58897;51.960;5.582;2023-05-23T00:43:03;101551.41;;;15.82;100.00
12987;BME280;58897;51.960;5.582;2023-05-23T00:45:30;101556.91;;;15.74;100.00
12987;BME280;58897;51.960;5.582;2023-05-23T00:47:57;101557.53;;;15.84;100.00
12987;BME280;58897;51.960;5.582;2023-05-23T00:50:26;101566.66;;;15.68;100.00
12987;BME280;58897;51.960;5.582;2023-05-23T00:52:57;101572.63;;;15.64;100.00
12987;BME280;58897;51.960;5.582;2023-05-23T00:55:26;101568.88;;;15.65;100.00
12987;BME280;58897;51.960;5.582;2023-05-23T00:57:53;101567.50;;;15.69;100.00
12987;BME280;58897;51.960;5.582;2023-05-23T01:00:23;101574.66;;;15.62;100.00
12987;BME280;58897;51.960;5.582;2023-05-23T01:02:51;101575.94;;;15.51;100.00
12987;BME280;58897;51.960;5.582;2023-05-23T01:05:19;101584.03;;;15.59;100.00
12987;BME280;58897;51.960;5.582;2023-05-23T01:07:48;101588.28;;;15.62;100.00
12987;BME280;58897;51.960;5.582;2023-05-23T01:10:18;101581.00;;;15.54;100.00
12987;BME280;58897;51.960;5.582;2023-05-23T01:13:19;101582.75;;;15.47;100.00
12987;BME280;58897;51.960;5.582;2023-05-23T01:15:53;101574.03;;;15.52;100.00
12987;BME280;58897;51.960;5.582;2023-05-23T01:18:37;101585.31;;;15.49;100.00
12987;BME280;58897;51.960;5.582;2023-05-23T01:21:13;101586.91;;;15.19;100.00
12987;BME280;58897;51.960;5.582;2023-05-23T01:29:09;101597.63;;;15.12;100.00
12987;BME280;58897;51.960;5.582;2023-05-23T01:31:42;101591.47;;;15.34;100.00
12987;BME280;58897;51.960;5.582;2023-05-23T01:34:11;101581.06;;;15.38;100.00
12987;BME280;58897;51.960;5.582;2023-05-23T01:36:42;101591.41;;;15.04;100.00
12987;BME280;58897;51.960;5.582;2023-05-23T01:39:10;101586.03;;;15.26;100.00
12987;BME280;58897;51.960;5.582;2023-05-23T01:41:37;101582.50;;;15.10;100.00
12987;BME280;58897;51.960;5.582;2023-05-23T01:44:03;101586.41;;;15.15;100.00
12987;BME280;58897;51.960;5.582;2023-05-23T01:46:31;101584.00;;;15.20;100.00
12987;BME280;58897;51.960;5.582;2023-05-23T01:49:00;101573.34;;;15.03;100.00
12987;BME280;58897;51.960;5.582;2023-05-23T01:51:28;101576.47;;;15.30;100.00
12987;BME280;58897;51.960;5.582;2023-05-23T01:53:56;101580.97;;;15.15;100.00
12987;BME280;58897;51.960;5.582;2023-05-23T01:56:23;101580.53;;;14.96;100.00
12987;BME280;58897;51.960;5.582;2023-05-23T01:58:50;101595.16;;;14.95;100.00
12987;BME280;58897;51.960;5.582;2023-05-23T02:01:17;101589.88;;;15.01;100.00
12987;BME280;58897;51.960;5.582;2023-05-23T02:03:44;101590.69;;;15.10;100.00
12987;BME280;58897;51.960;5.582;2023-05-23T02:06:10;101593.56;;;15.16;100.00
12987;BME280;58897;51.960;5.582;2023-05-23T02:08:37;101590.63;;;15.26;100.00
12987;BME280;58897;51.960;5.582;2023-05-23T02:11:04;101598.84;;;15.10;100.00
12987;BME280;58897;51.960;5.582;2023-05-23T02:13:30;101596.59;;;15.21;100.00
12987;BME280;58897;51.960;5.582;2023-05-23T02:15:57;101602.28;;;15.04;100.00
12987;BME280;58897;51.960;5.582;2023-05-23T02:18:23;101599.56;;;15.04;100.00
12987;BME280;58897;51.960;5.582;2023-05-23T02:20:51;101610.06;;;15.15;100.00
12987;BME280;58897;51.960;5.582;2023-05-23T02:23:18;101606.19;;;15.01;100.00
12987;BME280;58897;51.960;5.582;2023-05-23T02:25:44;101599.38;;;15.05;100.00
12987;BME280;58897;51.960;5.582;2023-05-23T02:28:11;101610.13;;;14.99;100.00
12987;BME280;58897;51.960;5.582;2023-05-23T02:30:38;101602.44;;;15.02;100.00
12987;BME280;58897;51.960;5.582;2023-05-23T02:33:05;101603.91;;;15.21;100.00
12987;BME280;58897;51.960;5.582;2023-05-23T02:35:32;101606.97;;;15.18;100.00
12987;BME280;58897;51.960;5.582;2023-05-23T02:37:59;101613.84;;;15.06;100.00
12987;BME280;58897;51.960;5.582;2023-05-23T02:40:26;101611.06;;;15.22;100.00
12987;BME280;58897;51.960;5.582;2023-05-23T02:42:52;101617.22;;;15.08;100.00
12987;BME280;58897;51.960;5.582;2023-05-23T02:45:22;101620.78;;;15.08;100.00
12987;BME280;58897;51.960;5.582;2023-05-23T02:47:49;101627.22;;;15.15;100.00
12987;BME280;58897;51.960;5.582;2023-05-23T02:50:16;101621.78;;;15.15;100.00
12987;BME280;58897;51.960;5.582;2023-05-23T02:52:42;101625.59;;;14.98;100.00
12987;BME280;58897;51.960;5.582;2023-05-23T02:55:09;101618.25;;;15.07;100.00
12987;BME280;58897;51.960;5.582;2023-05-23T02:57:36;101625.25;;;14.93;100.00
12987;BME280;58897;51.960;5.582;2023-05-23T03:00:02;101619.47;;;14.96;100.00
12987;BME280;58897;51.960;5.582;2023-05-23T03:02:30;101619.28;;;14.98;100.00
12987;BME280;58897;51.960;5.582;2023-05-23T03:04:56;101627.56;;;15.12;100.00
12987;BME280;58897;51.960;5.582;2023-05-23T03:07:23;101624.38;;;15.01;100.00
12987;BME280;58897;51.960;5.582;2023-05-23T03:09:54;101621.00;;;14.99;100.00
12987;BME280;58897;51.960;5.582;2023-05-23T03:12:21;101618.78;;;14.86;100.00
12987;BME280;58897;51.960;5.582;2023-05-23T03:14:48;101622.19;;;14.96;100.00
12987;BME280;58897;51.960;5.582;2023-05-23T03:17:14;101613.16;;;15.12;100.00
12987;BME280;58897;51.960;5.582;2023-05-23T03:19:41;101617.88;;;15.18;100.00
12987;BME280;58897;51.960;5.582;2023-05-23T03:22:08;101617.56;;;15.05;100.00
12987;BME280;58897;51.960;5.582;2023-05-23T03:24:34;101620.81;;;14.92;100.00
12987;BME280;58897;51.960;5.582;2023-05-23T03:27:01;101620.63;;;15.02;100.00
12987;BME280;58897;51.960;5.582;2023-05-23T03:29:28;101619.28;;;14.98;100.00
12987;BME280;58897;51.960;5.582;2023-05-23T03:31:54;101619.47;;;14.96;100.00
12987;BME280;58897;51.960;5.582;2023-05-23T03:34:21;101625.59;;;14.98;100.00
12987;BME280;58897;51.960;5.582;2023-05-23T03:36:49;101624.84;;;15.12;100.00
12987;BME280;58897;51.960;5.582;2023-05-23T03:39:16;101615.16;;;15.10;100.00
12987;BME280;58897;51.960;5.582;2023-05-23T03:41:42;101635.44;;;14.99;100.00
12987;BME280;58897;51.960;5.582;2023-05-23T03:44:09;101621.63;;;15.17;100.00
12987;BME280;58897;51.960;5.582;2023-05-23T03:46:36;101628.75;;;15.18;100.00
12987;BME280;58897;51.960;5.582;2023-05-23T03:49:04;101621.13;;;15.05;100.00
12987;BME280;58897;51.960;5.582;2023-05-23T03:51:30;101636.13;;;15.01;100.00
12987;BME280;58897;51.960;5.582;2023-05-23T03:53:57;101629.16;;;14.91;100.00
12987;BME280;58897;51.960;5.582;2023-05-23T03:56:24;101638.53;;;14.96;100.00
12987;BME280;58897;51.960;5.582;2023-05-23T03:58:51;101638.34;;;14.98;100.00
12987;BME280;58897;51.960;5.582;2023-05-23T04:01:17;101636.13;;;15.01;100.00
12987;BME280;58897;51.960;5.582;2023-05-23T04:03:44;101647.03;;;14.93;100.00
12987;BME280;58897;51.960;5.582;2023-05-23T04:06:11;101644.63;;;14.90;100.00
12987;BME280;58897;51.960;5.582;2023-05-23T04:08:39;101655.53;;;14.58;100.00
12987;BME280;58897;51.960;5.582;2023-05-23T04:11:07;101665.22;;;14.60;100.00
12987;BME280;58897;51.960;5.582;2023-05-23T04:13:33;101669.31;;;14.72;100.00
12987;BME280;58897;51.960;5.582;2023-05-23T04:16:00;101669.78;;;14.76;100.00
12987;BME280;58897;51.960;5.582;2023-05-23T04:18:31;101661.81;;;14.82;100.00
12987;BME280;58897;51.960;5.582;2023-05-23T04:21:01;101672.19;;;14.71;100.00
12987;BME280;58897;51.960;5.582;2023-05-23T04:23:27;101665.53;;;14.73;100.00
12987;BME280;58897;51.960;5.582;2023-05-23T04:25:54;101668.28;;;14.81;100.00
12987;BME280;58897;51.960;5.582;2023-05-23T04:28:22;101673.56;;;14.75;100.00
12987;BME280;58897;51.960;5.582;2023-05-23T04:30:49;101682.06;;;14.80;100.00
12987;BME280;58897;51.960;5.582;2023-05-23T04:33:16;101674.75;;;14.72;100.00
12987;BME280;58897;51.960;5.582;2023-05-23T04:35:43;101684.94;;;14.62;100.00
12987;BME280;58897;51.960;5.582;2023-05-23T04:38:10;101691.72;;;14.66;100.00
12987;BME280;58897;51.960;5.582;2023-05-23T04:40:38;101683.56;;;14.74;100.00
12987;BME280;58897;51.960;5.582;2023-05-23T04:43:05;101697.50;;;14.63;100.00
12987;BME280;58897;51.960;5.582;2023-05-23T04:45:32;101688.34;;;14.64;100.00
12987;BME280;58897;51.960;5.582;2023-05-23T04:47:59;101699.56;;;14.77;100.00
12987;BME280;58897;51.960;5.582;2023-05-23T04:50:26;101698.53;;;14.46;100.00
12987;BME280;58897;51.960;5.582;2023-05-23T04:52:53;101714.13;;;14.36;100.00
12987;BME280;58897;51.960;5.582;2023-05-23T04:55:22;101712.97;;;14.47;100.00
12987;BME280;58897;51.960;5.582;2023-05-23T04:57:48;101729.25;;;14.55;100.00
12987;BME280;58897;51.960;5.582;2023-05-23T05:00:15;101730.44;;;14.36;100.00
12987;BME280;58897;51.960;5.582;2023-05-23T05:02:42;101730.25;;;14.38;100.00
12987;BME280;58897;51.960;5.582;2023-05-23T05:05:08;101731.06;;;14.30;100.00
12987;BME280;58897;51.960;5.582;2023-05-23T05:07:35;101727.91;;;14.43;100.00
12987;BME280;58897;51.960;5.582;2023-05-23T05:10:02;101737.81;;;14.26;100.00
12987;BME280;58897;51.960;5.582;2023-05-23T05:12:29;101737.06;;;14.42;100.00
12987;BME280;58897;51.960;5.582;2023-05-23T05:14:55;101741.81;;;13.98;100.00
12987;BME280;58897;51.960;5.582;2023-05-23T05:17:22;101742.41;;;14.17;100.00
12987;BME280;58897;51.960;5.582;2023-05-23T05:19:48;101740.63;;;14.42;100.00
12987;BME280;58897;51.960;5.582;2023-05-23T05:22:15;101746.50;;;14.30;100.00
12987;BME280;58897;51.960;5.582;2023-05-23T05:24:41;101752.59;;;14.23;100.00
12987;BME280;58897;51.960;5.582;2023-05-23T05:27:08;101760.41;;;14.18;100.00
12987;BME280;58897;51.960;5.582;2023-05-23T05:29:36;101752.69;;;14.40;100.00
12987;BME280;58897;51.960;5.582;2023-05-23T05:32:03;101756.34;;;14.22;100.00
12987;BME280;58897;51.960;5.582;2023-05-23T05:34:30;101762.72;;;13.97;100.00
12987;BME280;58897;51.960;5.582;2023-05-23T05:36:56;101764.25;;;14.00;100.00
12987;BME280;58897;51.960;5.582;2023-05-23T05:39:23;101762.22;;;14.02;100.00
12987;BME280;58897;51.960;5.582;2023-05-23T05:41:51;101768.78;;;13.91;100.00
12987;BME280;58897;51.960;5.582;2023-05-23T05:44:18;101771.22;;;14.02;100.00
12987;BME280;58897;51.960;5.582;2023-05-23T05:46:44;101773.31;;;14.16;100.00
12987;BME280;58897;51.960;5.582;2023-05-23T05:49:11;101775.53;;;14.21;100.00
12987;BME280;58897;51.960;5.582;2023-05-23T05:51:38;101773.16;;;14.26;100.00
12987;BME280;58897;51.960;5.582;2023-05-23T05:54:04;101777.63;;;13.93;100.00
12987;BME280;58897;51.960;5.582;2023-05-23T05:56:31;101779.13;;;13.88;100.00
12987;BME280;58897;51.960;5.582;2023-05-23T05:58:58;101776.31;;;13.97;100.00
12987;BME280;58897;51.960;5.582;2023-05-23T06:01:24;101780.66;;;13.90;100.00
12987;BME280;58897;51.960;5.582;2023-05-23T06:03:52;101780.94;;;14.13;100.00
12987;BME280;58897;51.960;5.582;2023-05-23T06:06:19;101782.09;;;14.02;100.00
12987;BME280;58897;51.960;5.582;2023-05-23T06:08:45;101787.75;;;14.17;100.00
12987;BME280;58897;51.960;5.582;2023-05-23T06:11:12;101787.03;;;14.07;100.00
12987;BME280;58897;51.960;5.582;2023-05-23T06:13:38;101784.94;;;14.35;100.00
12987;BME280;58897;51.960;5.582;2023-05-23T06:16:05;101788.06;;;14.48;100.00
12987;BME280;58897;51.960;5.582;2023-05-23T06:18:32;101778.19;;;14.55;100.00
12987;BME280;58897;51.960;5.582;2023-05-23T06:20:59;101776.28;;;14.39;100.00
12987;BME280;58897;51.960;5.582;2023-05-23T06:23:26;101788.38;;;14.45;100.00
12987;BME280;58897;51.960;5.582;2023-05-23T06:25:52;101787.25;;;14.63;100.00
12987;BME280;58897;51.960;5.582;2023-05-23T06:28:19;101785.91;;;14.92;100.00
12987;BME280;58897;51.960;5.582;2023-05-23T06:30:45;101790.72;;;15.22;100.00
12987;BME280;58897;51.960;5.582;2023-05-23T06:33:12;101784.94;;;15.17;100.00
12987;BME280;58897;51.960;5.582;2023-05-23T06:35:38;101796.63;;;15.25;100.00
12987;BME280;58897;51.960;5.582;2023-05-23T06:38:05;101790.97;;;15.83;100.00
12987;BME280;58897;51.960;5.582;2023-05-23T06:40:32;101790.84;;;15.77;100.00
12987;BME280;58897;51.960;5.582;2023-05-23T06:42:58;101798.88;;;15.30;100.00
12987;BME280;58897;51.960;5.582;2023-05-23T06:45:25;101803.31;;;15.07;100.00
12987;BME280;58897;51.960;5.582;2023-05-23T06:47:51;101801.75;;;15.20;100.00
12987;BME280;58897;51.960;5.582;2023-05-23T06:50:18;101798.53;;;15.25;100.00
12987;BME280;58897;51.960;5.582;2023-05-23T06:52:45;101797.00;;;15.55;100.00
12987;BME280;58897;51.960;5.582;2023-05-23T06:55:12;101811.09;;;15.34;100.00
12987;BME280;58897;51.960;5.582;2023-05-23T06:57:43;101817.75;;;15.15;100.00
12987;BME280;58897;51.960;5.582;2023-05-23T07:00:11;101816.41;;;15.19;100.00
12987;BME280;58897;51.960;5.582;2023-05-23T07:02:38;101812.47;;;15.22;100.00
12987;BME280;58897;51.960;5.582;2023-05-23T07:05:05;101818.78;;;15.14;100.00
12987;BME280;58897;51.960;5.582;2023-05-23T07:07:32;101819.09;;;14.95;100.00
12987;BME280;58897;51.960;5.582;2023-05-23T07:09:59;101825.16;;;14.81;100.00
12987;BME280;58897;51.960;5.582;2023-05-23T07:12:26;101825.50;;;14.62;100.00
12987;BME280;58897;51.960;5.582;2023-05-23T07:14:52;101826.75;;;14.34;100.00
12987;BME280;58897;51.960;5.582;2023-05-23T07:17:19;101830.66;;;14.39;100.00
12987;BME280;58897;51.960;5.582;2023-05-23T07:19:45;101824.22;;;14.40;100.00
12987;BME280;58897;51.960;5.582;2023-05-23T07:22:12;101831.41;;;14.49;100.00
12987;BME280;58897;51.960;5.582;2023-05-23T07:24:38;101833.75;;;14.44;100.00
12987;BME280;58897;51.960;5.582;2023-05-23T07:27:05;101835.50;;;14.61;100.00
12987;BME280;58897;51.960;5.582;2023-05-23T07:29:32;101835.19;;;14.64;100.00
12987;BME280;58897;51.960;5.582;2023-05-23T07:31:58;101834.03;;;14.75;100.00
12987;BME280;58897;51.960;5.582;2023-05-23T07:34:25;101829.97;;;14.95;100.00
12987;BME280;58897;51.960;5.582;2023-05-23T07:36:52;101839.50;;;15.15;100.00
12987;BME280;58897;51.960;5.582;2023-05-23T07:39:18;101838.16;;;15.03;100.00
12987;BME280;58897;51.960;5.582;2023-05-23T07:41:47;101844.09;;;15.15;100.00
12987;BME280;58897;51.960;5.582;2023-05-23T07:44:17;101848.81;;;14.80;100.00
12987;BME280;58897;51.960;5.582;2023-05-23T07:46:44;101855.13;;;14.97;100.00
12987;BME280;58897;51.960;5.582;2023-05-23T07:49:11;101856.16;;;14.96;100.00
12987;BME280;58897;51.960;5.582;2023-05-23T07:51:37;101854.91;;;14.74;100.00
12987;BME280;58897;51.960;5.582;2023-05-23T07:54:04;101853.91;;;14.83;100.00
12987;BME280;58897;51.960;5.582;2023-05-23T07:56:31;101854.09;;;14.82;100.00
12987;BME280;58897;51.960;5.582;2023-05-23T07:58:58;101853.78;;;15.17;100.00
12987;BME280;58897;51.960;5.582;2023-05-23T08:01:24;101857.66;;;14.82;100.00
12987;BME280;58897;51.960;5.582;2023-05-23T08:03:51;101854.16;;;15.22;100.00
12987;BME280;58897;51.960;5.582;2023-05-23T08:06:17;101863.34;;;15.21;100.00
12987;BME280;58897;51.960;5.582;2023-05-23T08:08:44;101854.75;;;14.84;100.00
12987;BME280;58897;51.960;5.582;2023-05-23T08:11:10;101861.19;;;14.67;100.00
12987;BME280;58897;51.960;5.582;2023-05-23T08:13:37;101867.06;;;14.46;100.00
12987;BME280;58897;51.960;5.582;2023-05-23T08:16:04;101866.38;;;14.52;100.00
12987;BME280;58897;51.960;5.582;2023-05-23T08:18:30;101873.09;;;14.74;100.00
12987;BME280;58897;51.960;5.582;2023-05-23T08:20:57;101872.84;;;15.25;100.00
12987;BME280;58897;51.960;5.582;2023-05-23T08:23:23;101875.63;;;15.74;100.00
12987;BME280;58897;51.960;5.582;2023-05-23T08:25:51;101876.09;;;15.85;100.00
12987;BME280;58897;51.960;5.582;2023-05-23T08:28:18;101874.75;;;16.60;100.00
12987;BME280;58897;51.960;5.582;2023-05-23T08:30:44;101869.59;;;18.16;100.00
12987;BME280;58897;51.960;5.582;2023-05-23T08:33:12;101871.84;;;18.57;100.00
12987;BME280;58897;51.960;5.582;2023-05-23T08:35:38;101882.06;;;17.67;100.00
12987;BME280;58897;51.960;5.582;2023-05-23T08:38:06;101882.78;;;18.13;100.00
12987;BME280;58897;51.960;5.582;2023-05-23T08:40:35;101887.69;;;17.65;100.00
12987;BME280;58897;51.960;5.582;2023-05-23T08:43:02;101883.63;;;16.85;100.00
12987;BME280;58897;51.960;5.582;2023-05-23T08:45:29;101890.47;;;16.42;100.00
12987;BME280;58897;51.960;5.582;2023-05-23T08:47:59;101903.28;;;16.26;100.00
12987;BME280;58897;51.960;5.582;2023-05-23T08:50:27;101899.66;;;16.41;100.00
12987;BME280;58897;51.960;5.582;2023-05-23T08:52:57;101905.75;;;15.80;100.00
12987;BME280;58897;51.960;5.582;2023-05-23T08:55:28;101903.84;;;16.13;100.00
12987;BME280;58897;51.960;5.582;2023-05-23T08:57:56;101902.41;;;16.33;100.00
12987;BME280;58897;51.960;5.582;2023-05-23T09:00:25;101913.91;;;15.96;100.00
12987;BME280;58897;51.960;5.582;2023-05-23T09:02:52;101896.84;;;16.11;100.00
12987;BME280;58897;51.960;5.582;2023-05-23T09:05:20;101912.97;;;16.36;100.00
12987;BME280;58897;51.960;5.582;2023-05-23T09:07:48;101908.06;;;16.32;100.00
12987;BME280;58897;51.960;5.582;2023-05-23T09:10:14;101916.22;;;16.40;100.00
12987;BME280;58897;51.960;5.582;2023-05-23T09:12:45;101923.78;;;16.14;100.00
12987;BME280;58897;51.960;5.582;2023-05-23T09:15:12;101924.84;;;16.51;100.00
12987;BME280;58897;51.960;5.582;2023-05-23T09:17:39;101930.66;;;16.40;100.00
12987;BME280;58897;51.960;5.582;2023-05-23T09:20:14;101921.09;;;18.42;100.00
12987;BME280;58897;51.960;5.582;2023-05-23T09:22:45;101917.97;;;19.60;100.00
12987;BME280;58897;51.960;5.582;2023-05-23T09:25:13;101930.34;;;20.05;100.00
12987;BME280;58897;51.960;5.582;2023-05-23T09:27:41;101922.56;;;19.03;100.00
12987;BME280;58897;51.960;5.582;2023-05-23T09:30:12;101907.69;;;20.93;99.88
12987;BME280;58897;51.960;5.582;2023-05-23T09:32:39;101905.56;;;20.48;97.09
12987;BME280;58897;51.960;5.582;2023-05-23T09:35:06;101924.50;;;18.73;100.00
12987;BME280;58897;51.960;5.582;2023-05-23T09:37:46;101924.13;;;18.32;100.00
12987;BME280;58897;51.960;5.582;2023-05-23T09:40:13;101921.69;;;18.52;100.00
12987;BME280;58897;51.960;5.582;2023-05-23T09:42:42;101917.81;;;19.68;100.00
12987;BME280;58897;51.960;5.582;2023-05-23T09:45:13;101920.66;;;19.18;100.00
12987;BME280;58897;51.960;5.582;2023-05-23T09:47:53;101927.16;;;20.98;95.17
12987;BME280;58897;51.960;5.582;2023-05-23T09:50:20;101912.69;;;21.24;94.27
12987;BME280;58897;51.960;5.582;2023-05-23T09:52:46;101918.97;;;20.64;100.00
12987;BME280;58897;51.960;5.582;2023-05-23T09:55:13;101924.00;;;21.88;82.37
12987;BME280;58897;51.960;5.582;2023-05-23T09:57:41;101916.78;;;21.74;87.92
12987;BME280;58897;51.960;5.582;2023-05-23T10:00:09;101921.03;;;21.76;83.64
12987;BME280;58897;51.960;5.582;2023-05-23T10:07:52;101921.25;;;22.14;80.27
12987;BME280;58897;51.960;5.582;2023-05-23T10:10:19;101918.97;;;20.70;84.05
12987;BME280;58897;51.960;5.582;2023-05-23T10:12:48;101928.94;;;20.37;91.22
12987;BME280;58897;51.960;5.582;2023-05-23T10:15:17;101932.66;;;20.02;97.72
12987;BME280;58897;51.960;5.582;2023-05-23T10:18:02;101921.00;;;21.50;78.80
12987;BME280;58897;51.960;5.582;2023-05-23T10:20:32;101918.56;;;22.85;79.29
12987;BME280;58897;51.960;5.582;2023-05-23T10:23:01;101928.22;;;22.17;80.21
12987;BME280;58897;51.960;5.582;2023-05-23T10:25:28;101936.34;;;21.12;88.62
12987;BME280;58897;51.960;5.582;2023-05-23T10:27:55;101941.03;;;20.49;91.47
12987;BME280;58897;51.960;5.582;2023-05-23T10:30:29;101932.44;;;21.00;84.88
12987;BME280;58897;51.960;5.582;2023-05-23T10:32:56;101933.09;;;21.82;80.14
12987;BME280;58897;51.960;5.582;2023-05-23T10:46:00;101941.56;;;22.39;69.64
12987;BME280;58897;51.960;5.582;2023-05-23T10:51:01;101948.59;;;20.75;86.36
12987;BME280;58897;51.960;5.582;2023-05-23T10:53:31;101941.91;;;22.56;85.83
12987;BME280;58897;51.960;5.582;2023-05-23T10:55:57;101934.19;;;23.42;74.09
12987;BME280;58897;51.960;5.582;2023-05-23T10:58:24;101936.81;;;23.92;71.35
12987;BME280;58897;51.960;5.582;2023-05-23T11:00:55;101949.91;;;24.04;67.12
12987;BME280;58897;51.960;5.582;2023-05-23T11:03:35;101943.25;;;24.36;63.91
12987;BME280;58897;51.960;5.582;2023-05-23T11:06:04;101930.31;;;24.54;61.15
12987;BME280;58897;51.960;5.582;2023-05-23T11:08:40;101935.53;;;23.95;67.63
12987;BME280;58897;51.960;5.582;2023-05-23T11:11:14;101939.63;;;23.86;63.66
12987;BME280;58897;51.960;5.582;2023-05-23T11:13:56;101936.41;;;21.51;73.64
12987;BME280;58897;51.960;5.582;2023-05-23T11:16:42;101942.75;;;21.51;83.43
12987;BME280;58897;51.960;5.582;2023-05-23T11:21:58;101949.91;;;21.33;85.40
12987;BME280;58897;51.960;5.582;2023-05-23T11:24:53;101939.94;;;20.78;90.01
12987;BME280;58897;51.960;5.582;2023-05-23T11:27:34;101945.91;;;20.88;89.30
12987;BME280;58897;51.960;5.582;2023-05-23T11:30:12;101947.81;;;21.41;82.07
12987;BME280;58897;51.960;5.582;2023-05-23T11:32:41;101942.31;;;20.87;87.33
12987;BME280;58897;51.960;5.582;2023-05-23T11:35:09;101947.28;;;21.92;86.95
12987;BME280;58897;51.960;5.582;2023-05-23T11:37:39;101940.88;;;22.57;66.63
12987;BME280;58897;51.960;5.582;2023-05-23T11:40:31;101949.81;;;22.06;70.29
12987;BME280;58897;51.960;5.582;2023-05-23T11:43:00;101958.44;;;20.63;78.21
12987;BME280;58897;51.960;5.582;2023-05-23T11:45:28;101967.13;;;19.90;92.21
12987;BME280;58897;51.960;5.582;2023-05-23T11:47:55;101969.59;;;20.06;94.63
12987;BME280;58897;51.960;5.582;2023-05-23T11:50:21;101965.09;;;20.81;93.16
12987;BME280;58897;51.960;5.582;2023-05-23T11:52:49;101961.06;;;20.77;93.92
12987;BME280;58897;51.960;5.582;2023-05-23T11:55:20;101963.31;;;20.33;96.28
12987;BME280;58897;51.960;5.582;2023-05-23T11:57:48;101962.25;;;19.85;96.09
12987;BME280;58897;51.960;5.582;2023-05-23T12:00:15;101964.84;;;19.15;95.95
12987;BME280;58897;51.960;5.582;2023-05-23T12:02:43;101970.53;;;18.99;100.00
12987;BME280;58897;51.960;5.582;2023-05-23T12:05:12;101975.66;;;18.73;100.00
12987;BME280;58897;51.960;5.582;2023-05-23T12:07:45;101967.06;;;20.04;94.53
12987;BME280;58897;51.960;5.582;2023-05-23T12:10:16;101970.69;;;21.01;83.11
12987;BME280;58897;51.960;5.582;2023-05-23T12:12:45;101972.44;;;20.40;74.75
12987;BME280;58897;51.960;5.582;2023-05-23T12:15:12;101967.38;;;20.78;78.36
12987;BME280;58897;51.960;5.582;2023-05-23T12:17:48;101970.16;;;21.25;83.48
12987;BME280;58897;51.960;5.582;2023-05-23T12:20:16;101971.41;;;22.16;79.39
12987;BME280;58897;51.960;5.582;2023-05-23T12:22:42;101968.97;;;22.92;70.66
12987;BME280;58897;51.960;5.582;2023-05-23T12:25:09;101966.66;;;22.89;67.58
12987;BME280;58897;51.960;5.582;2023-05-23T12:27:39;101967.97;;;23.30;71.04
12987;BME280;58897;51.960;5.582;2023-05-23T12:30:17;101967.22;;;23.55;67.98
12987;BME280;58897;51.960;5.582;2023-05-23T12:32:44;101974.03;;;22.95;70.66
12987;BME280;58897;51.960;5.582;2023-05-23T12:35:15;101980.66;;;21.56;78.44
12987;BME280;58897;51.960;5.582;2023-05-23T12:37:45;101982.97;;;20.64;86.52
12987;BME280;58897;51.960;5.582;2023-05-23T12:40:16;101990.75;;;20.33;84.47
12987;BME280;58897;51.960;5.582;2023-05-23T12:42:50;101991.50;;;19.78;88.23
12987;BME280;58897;51.960;5.582;2023-05-23T12:45:38;101992.50;;;19.70;89.81
12987;BME280;58897;51.960;5.582;2023-05-23T12:48:05;101987.84;;;19.50;90.80
12987;BME280;58897;51.960;5.582;2023-05-23T12:50:34;101987.63;;;20.36;90.40
12987;BME280;58897;51.960;5.582;2023-05-23T12:53:01;101976.00;;;21.70;81.33
12987;BME280;58897;51.960;5.582;2023-05-23T12:55:28;101981.16;;;22.19;74.89
12987;BME280;58897;51.960;5.582;2023-05-23T12:57:55;101976.47;;;22.45;69.47
12987;BME280;58897;51.960;5.582;2023-05-23T13:00:21;101973.03;;;21.65;74.26
12987;BME280;58897;51.960;5.582;2023-05-23T13:02:48;101981.50;;;20.68;77.10
12987;BME280;58897;51.960;5.582;2023-05-23T13:05:15;101989.13;;;20.39;77.56
12987;BME280;58897;51.960;5.582;2023-05-23T13:07:42;101983.34;;;20.33;83.77
12987;BME280;58897;51.960;5.582;2023-05-23T13:10:09;101977.06;;;20.40;83.11
12987;BME280;58897;51.960;5.582;2023-05-23T13:12:36;101973.53;;;21.14;71.26
12987;BME280;58897;51.960;5.582;2023-05-23T13:15:03;101978.16;;;22.59;67.72